sensor_id;sensor_type;location;lat;lon;timestamp;P1;durP1;ratioP1;P2;durP2;ratioP2
82873;SDS011;72647;51.622;7.540;2023-12-14T00:00:19;10.97;;;5.07;;
82873;SDS011;72647;51.622;7.540;2023-12-14T00:02:19;9.10;;;4.60;;
82873;SDS011;72647;51.622;7.540;2023-12-14T00:04:19;9.63;;;4.37;;
82873;SDS011;72647;51.622;7.540;2023-12-14T00:06:19;10.53;;;4.77;;
82873;SDS011;72647;51.622;7.540;2023-12-14T00:08:20;8.80;;;4.77;;
82873;SDS011;72647;51.622;7.540;2023-12-14T00:10:20;8.80;;;4.57;;
82873;SDS011;72647;51.622;7.540;2023-12-14T00:14:21;8.70;;;4.10;;
82873;SDS011;72647;51.622;7.540;2023-12-14T00:16:22;7.78;;;4.10;;
82873;SDS011;72647;51.622;7.540;2023-12-14T00:18:22;8.67;;;3.70;;
82873;SDS011;72647;51.622;7.540;2023-12-14T00:20:22;9.75;;;4.45;;
82873;SDS011;72647;51.622;7.540;2023-12-14T00:22:22;8.77;;;4.60;;
82873;SDS011;72647;51.622;7.540;2023-12-14T00:24:23;8.13;;;4.40;;
82873;SDS011;72647;51.622;7.540;2023-12-14T00:26:23;9.47;;;4.57;;
82873;SDS011;72647;51.622;7.540;2023-12-14T00:28:23;12.13;;;4.57;;
82873;SDS011;72647;51.622;7.540;2023-12-14T00:30:23;9.70;;;4.77;;
82873;SDS011;72647;51.622;7.540;2023-12-14T00:32:23;12.17;;;5.60;;
82873;SDS011;72647;51.622;7.540;2023-12-14T00:34:24;8.93;;;4.43;;
82873;SDS011;72647;51.622;7.540;2023-12-14T00:36:24;10.05;;;5.07;;
82873;SDS011;72647;51.622;7.540;2023-12-14T00:38:25;14.13;;;6.90;;
82873;SDS011;72647;51.622;7.540;2023-12-14T00:40:25;16.58;;;7.50;;
82873;SDS011;72647;51.622;7.540;2023-12-14T00:42:26;19.97;;;8.37;;
82873;SDS011;72647;51.622;7.540;2023-12-14T00:44:26;19.63;;;8.93;;
82873;SDS011;72647;51.622;7.540;2023-12-14T00:46:26;22.73;;;9.33;;
82873;SDS011;72647;51.622;7.540;2023-12-14T00:48:27;19.88;;;8.43;;
82873;SDS011;72647;51.622;7.540;2023-12-14T00:50:27;22.40;;;9.07;;
82873;SDS011;72647;51.622;7.540;2023-12-14T00:52:27;21.50;;;8.50;;
82873;SDS011;72647;51.622;7.540;2023-12-14T00:54:27;25.58;;;10.52;;
82873;SDS011;72647;51.622;7.540;2023-12-14T00:56:28;24.90;;;10.77;;
82873;SDS011;72647;51.622;7.540;2023-12-14T00:58:28;21.03;;;9.30;;
82873;SDS011;72647;51.622;7.540;2023-12-14T01:00:28;28.80;;;10.87;;
82873;SDS011;72647;51.622;7.540;2023-12-14T01:02:29;26.80;;;10.60;;
82873;SDS011;72647;51.622;7.540;2023-12-14T01:04:29;30.23;;;11.47;;
82873;SDS011;72647;51.622;7.540;2023-12-14T01:06:29;28.52;;;10.77;;
82873;SDS011;72647;51.622;7.540;2023-12-14T01:08:29;33.20;;;12.03;;
82873;SDS011;72647;51.622;7.540;2023-12-14T01:10:30;31.20;;;11.27;;
82873;SDS011;72647;51.622;7.540;2023-12-14T01:12:30;29.07;;;10.53;;
82873;SDS011;72647;51.622;7.540;2023-12-14T01:14:30;27.27;;;10.67;;
82873;SDS011;72647;51.622;7.540;2023-12-14T01:16:30;24.70;;;9.03;;
82873;SDS011;72647;51.622;7.540;2023-12-14T01:18:31;24.27;;;10.07;;
82873;SDS011;72647;51.622;7.540;2023-12-14T01:20:31;21.15;;;9.40;;
82873;SDS011;72647;51.622;7.540;2023-12-14T01:22:31;23.30;;;9.38;;
82873;SDS011;72647;51.622;7.540;2023-12-14T01:24:32;25.80;;;9.77;;
82873;SDS011;72647;51.622;7.540;2023-12-14T01:26:32;21.83;;;9.00;;
82873;SDS011;72647;51.622;7.540;2023-12-14T01:28:32;26.00;;;10.33;;
82873;SDS011;72647;51.622;7.540;2023-12-14T01:30:32;24.97;;;10.00;;
82873;SDS011;72647;51.622;7.540;2023-12-14T01:32:33;26.13;;;9.97;;
82873;SDS011;72647;51.622;7.540;2023-12-14T01:34:33;26.07;;;10.17;;
82873;SDS011;72647;51.622;7.540;2023-12-14T01:36:33;25.13;;;10.20;;
82873;SDS011;72647;51.622;7.540;2023-12-14T01:38:34;23.43;;;9.33;;
82873;SDS011;72647;51.622;7.540;2023-12-14T01:40:34;25.17;;;10.18;;
82873;SDS011;72647;51.622;7.540;2023-12-14T01:42:35;26.67;;;9.90;;
82873;SDS011;72647;51.622;7.540;2023-12-14T01:44:35;26.93;;;10.27;;
82873;SDS011;72647;51.622;7.540;2023-12-14T01:46:35;28.48;;;10.18;;
82873;SDS011;72647;51.622;7.540;2023-12-14T01:48:35;23.37;;;9.67;;
82873;SDS011;72647;51.622;7.540;2023-12-14T01:50:37;24.43;;;9.93;;
82873;SDS011;72647;51.622;7.540;2023-12-14T01:52:37;27.30;;;10.23;;
82873;SDS011;72647;51.622;7.540;2023-12-14T01:54:37;25.27;;;9.97;;
82873;SDS011;72647;51.622;7.540;2023-12-14T01:56:38;24.73;;;10.43;;
82873;SDS011;72647;51.622;7.540;2023-12-14T01:58:38;24.55;;;10.20;;
82873;SDS011;72647;51.622;7.540;2023-12-14T02:02:48;22.20;;;8.90;;
82873;SDS011;72647;51.622;7.540;2023-12-14T02:04:48;26.58;;;9.85;;
82873;SDS011;72647;51.622;7.540;2023-12-14T02:06:48;22.67;;;9.43;;
82873;SDS011;72647;51.622;7.540;2023-12-14T02:08:49;24.70;;;9.63;;
82873;SDS011;72647;51.622;7.540;2023-12-14T02:10:49;26.67;;;9.77;;
82873;SDS011;72647;51.622;7.540;2023-12-14T02:12:49;23.80;;;9.73;;
82873;SDS011;72647;51.622;7.540;2023-12-14T02:14:49;22.67;;;8.80;;
82873;SDS011;72647;51.622;7.540;2023-12-14T02:16:49;24.80;;;9.80;;
82873;SDS011;72647;51.622;7.540;2023-12-14T02:18:50;21.93;;;9.17;;
82873;SDS011;72647;51.622;7.540;2023-12-14T02:20:50;21.23;;;9.27;;
82873;SDS011;72647;51.622;7.540;2023-12-14T02:24:50;21.90;;;8.90;;
82873;SDS011;72647;51.622;7.540;2023-12-14T02:26:51;26.38;;;9.25;;
82873;SDS011;72647;51.622;7.540;2023-12-14T02:28:51;21.70;;;8.90;;
82873;SDS011;72647;51.622;7.540;2023-12-14T02:30:51;25.80;;;9.00;;
82873;SDS011;72647;51.622;7.540;2023-12-14T02:32:51;24.77;;;9.97;;
82873;SDS011;72647;51.622;7.540;2023-12-14T02:34:51;21.70;;;8.90;;
82873;SDS011;72647;51.622;7.540;2023-12-14T02:36:52;25.27;;;9.83;;
82873;SDS011;72647;51.622;7.540;2023-12-14T02:38:52;23.52;;;7.93;;
82873;SDS011;72647;51.622;7.540;2023-12-14T02:40:52;23.97;;;7.97;;
82873;SDS011;72647;51.622;7.540;2023-12-14T02:42:52;19.23;;;8.77;;
82873;SDS011;72647;51.622;7.540;2023-12-14T02:44:53;14.80;;;5.20;;
82873;SDS011;72647;51.622;7.540;2023-12-14T02:46:53;20.17;;;7.25;;
82873;SDS011;72647;51.622;7.540;2023-12-14T02:48:53;19.27;;;6.37;;
82873;SDS011;72647;51.622;7.540;2023-12-14T02:50:53;20.77;;;7.93;;
82873;SDS011;72647;51.622;7.540;2023-12-14T02:52:54;18.10;;;6.90;;
82873;SDS011;72647;51.622;7.540;2023-12-14T02:54:54;23.10;;;7.75;;
82873;SDS011;72647;51.622;7.540;2023-12-14T02:56:54;18.20;;;7.60;;
82873;SDS011;72647;51.622;7.540;2023-12-14T02:58:55;20.75;;;8.05;;
82873;SDS011;72647;51.622;7.540;2023-12-14T03:00:55;21.13;;;8.30;;
82873;SDS011;72647;51.622;7.540;2023-12-14T03:02:57;23.00;;;7.80;;
82873;SDS011;72647;51.622;7.540;2023-12-14T03:06:57;17.13;;;6.85;;
82873;SDS011;72647;51.622;7.540;2023-12-14T03:09:02;19.77;;;6.82;;
82873;SDS011;72647;51.622;7.540;2023-12-14T03:11:02;20.17;;;7.37;;
82873;SDS011;72647;51.622;7.540;2023-12-14T03:13:02;20.50;;;7.50;;
82873;SDS011;72647;51.622;7.540;2023-12-14T03:15:03;21.87;;;7.80;;
82873;SDS011;72647;51.622;7.540;2023-12-14T03:17:03;22.38;;;7.70;;
82873;SDS011;72647;51.622;7.540;2023-12-14T03:19:03;19.10;;;8.10;;
82873;SDS011;72647;51.622;7.540;2023-12-14T03:21:04;22.60;;;8.87;;
82873;SDS011;72647;51.622;7.540;2023-12-14T03:23:04;16.83;;;7.28;;
82873;SDS011;72647;51.622;7.540;2023-12-14T03:25:04;18.17;;;7.20;;
82873;SDS011;72647;51.622;7.540;2023-12-14T03:27:05;19.50;;;7.10;;
82873;SDS011;72647;51.622;7.540;2023-12-14T03:29:05;20.63;;;7.77;;
82873;SDS011;72647;51.622;7.540;2023-12-14T03:31:05;22.60;;;7.53;;
82873;SDS011;72647;51.622;7.540;2023-12-14T03:33:05;16.47;;;6.67;;
82873;SDS011;72647;51.622;7.540;2023-12-14T03:35:07;19.90;;;7.88;;
82873;SDS011;72647;51.622;7.540;2023-12-14T03:37:08;18.70;;;7.03;;
82873;SDS011;72647;51.622;7.540;2023-12-14T03:39:08;18.40;;;6.70;;
82873;SDS011;72647;51.622;7.540;2023-12-14T03:41:08;17.60;;;6.70;;
82873;SDS011;72647;51.622;7.540;2023-12-14T03:43:08;19.20;;;7.13;;
82873;SDS011;72647;51.622;7.540;2023-12-14T03:45:09;15.87;;;6.90;;
82873;SDS011;72647;51.622;7.540;2023-12-14T03:47:09;16.77;;;6.70;;
82873;SDS011;72647;51.622;7.540;2023-12-14T03:49:09;17.83;;;6.60;;
82873;SDS011;72647;51.622;7.540;2023-12-14T03:51:10;16.43;;;6.60;;
82873;SDS011;72647;51.622;7.540;2023-12-14T03:53:10;15.90;;;6.73;;
82873;SDS011;72647;51.622;7.540;2023-12-14T03:55:10;17.17;;;7.23;;
82873;SDS011;72647;51.622;7.540;2023-12-14T03:57:10;17.20;;;6.95;;
82873;SDS011;72647;51.622;7.540;2023-12-14T03:59:11;16.67;;;6.43;;
82873;SDS011;72647;51.622;7.540;2023-12-14T04:01:17;17.57;;;7.03;;
82873;SDS011;72647;51.622;7.540;2023-12-14T04:03:18;18.88;;;7.05;;
82873;SDS011;72647;51.622;7.540;2023-12-14T04:05:18;18.17;;;7.13;;
82873;SDS011;72647;51.622;7.540;2023-12-14T04:07:18;16.93;;;6.20;;
82873;SDS011;72647;51.622;7.540;2023-12-14T04:09:18;15.33;;;6.63;;
82873;SDS011;72647;51.622;7.540;2023-12-14T04:11:19;13.30;;;5.23;;
82873;SDS011;72647;51.622;7.540;2023-12-14T04:13:19;16.00;;;6.13;;
82873;SDS011;72647;51.622;7.540;2023-12-14T04:15:19;15.00;;;5.37;;
82873;SDS011;72647;51.622;7.540;2023-12-14T04:17:19;15.17;;;6.13;;
82873;SDS011;72647;51.622;7.540;2023-12-14T04:19:19;14.33;;;5.70;;
82873;SDS011;72647;51.622;7.540;2023-12-14T04:21:20;18.47;;;6.47;;
82873;SDS011;72647;51.622;7.540;2023-12-14T04:23:20;15.97;;;5.87;;
82873;SDS011;72647;51.622;7.540;2023-12-14T04:25:20;16.00;;;5.63;;
82873;SDS011;72647;51.622;7.540;2023-12-14T04:27:20;18.30;;;6.07;;
82873;SDS011;72647;51.622;7.540;2023-12-14T04:29:21;16.30;;;5.67;;
82873;SDS011;72647;51.622;7.540;2023-12-14T04:31:21;20.10;;;6.73;;
82873;SDS011;72647;51.622;7.540;2023-12-14T04:33:21;17.67;;;6.20;;
82873;SDS011;72647;51.622;7.540;2023-12-14T04:35:21;14.50;;;6.20;;
82873;SDS011;72647;51.622;7.540;2023-12-14T04:37:24;17.70;;;5.95;;
82873;SDS011;72647;51.622;7.540;2023-12-14T04:39:25;15.67;;;6.97;;
82873;SDS011;72647;51.622;7.540;2023-12-14T04:41:26;15.35;;;6.28;;
82873;SDS011;72647;51.622;7.540;2023-12-14T04:43:26;13.57;;;6.20;;
82873;SDS011;72647;51.622;7.540;2023-12-14T04:45:29;15.40;;;5.60;;
82873;SDS011;72647;51.622;7.540;2023-12-14T04:47:29;16.23;;;6.28;;
82873;SDS011;72647;51.622;7.540;2023-12-14T04:49:30;14.43;;;6.33;;
82873;SDS011;72647;51.622;7.540;2023-12-14T04:51:30;16.27;;;5.77;;
82873;SDS011;72647;51.622;7.540;2023-12-14T04:53:31;14.55;;;5.82;;
82873;SDS011;72647;51.622;7.540;2023-12-14T04:55:32;14.07;;;5.90;;
82873;SDS011;72647;51.622;7.540;2023-12-14T04:57:32;16.30;;;5.93;;
82873;SDS011;72647;51.622;7.540;2023-12-14T04:59:32;15.50;;;5.90;;
82873;SDS011;72647;51.622;7.540;2023-12-14T05:01:32;13.67;;;5.23;;
82873;SDS011;72647;51.622;7.540;2023-12-14T05:03:33;14.13;;;5.70;;
82873;SDS011;72647;51.622;7.540;2023-12-14T05:05:33;15.18;;;6.15;;
82873;SDS011;72647;51.622;7.540;2023-12-14T05:07:34;13.57;;;6.17;;
82873;SDS011;72647;51.622;7.540;2023-12-14T05:09:34;16.73;;;6.03;;
82873;SDS011;72647;51.622;7.540;2023-12-14T05:11:34;15.65;;;6.30;;
82873;SDS011;72647;51.622;7.540;2023-12-14T05:13:34;15.20;;;6.63;;
82873;SDS011;72647;51.622;7.540;2023-12-14T05:15:35;13.13;;;5.40;;
82873;SDS011;72647;51.622;7.540;2023-12-14T05:17:35;11.83;;;5.60;;
82873;SDS011;72647;51.622;7.540;2023-12-14T05:19:36;14.00;;;5.93;;
82873;SDS011;72647;51.622;7.540;2023-12-14T05:21:37;15.73;;;6.07;;
82873;SDS011;72647;51.622;7.540;2023-12-14T05:23:37;13.27;;;5.43;;
82873;SDS011;72647;51.622;7.540;2023-12-14T05:25:38;14.63;;;6.83;;
82873;SDS011;72647;51.622;7.540;2023-12-14T05:27:38;14.27;;;5.93;;
82873;SDS011;72647;51.622;7.540;2023-12-14T05:29:38;13.60;;;5.77;;
82873;SDS011;72647;51.622;7.540;2023-12-14T05:31:38;16.30;;;6.17;;
82873;SDS011;72647;51.622;7.540;2023-12-14T05:33:39;15.87;;;6.50;;
82873;SDS011;72647;51.622;7.540;2023-12-14T05:35:39;15.17;;;6.37;;
82873;SDS011;72647;51.622;7.540;2023-12-14T05:37:39;20.43;;;7.53;;
82873;SDS011;72647;51.622;7.540;2023-12-14T05:39:42;15.77;;;6.68;;
82873;SDS011;72647;51.622;7.540;2023-12-14T05:41:43;15.90;;;7.30;;
82873;SDS011;72647;51.622;7.540;2023-12-14T05:43:43;16.60;;;6.67;;
82873;SDS011;72647;51.622;7.540;2023-12-14T05:45:43;15.40;;;6.90;;
82873;SDS011;72647;51.622;7.540;2023-12-14T05:47:44;15.53;;;7.23;;
82873;SDS011;72647;51.622;7.540;2023-12-14T05:49:44;16.00;;;6.35;;
82873;SDS011;72647;51.622;7.540;2023-12-14T05:51:44;22.10;;;9.23;;
82873;SDS011;72647;51.622;7.540;2023-12-14T05:53:44;19.43;;;8.03;;
82873;SDS011;72647;51.622;7.540;2023-12-14T05:55:45;13.90;;;6.07;;
82873;SDS011;72647;51.622;7.540;2023-12-14T05:57:46;16.58;;;6.97;;
82873;SDS011;72647;51.622;7.540;2023-12-14T05:59:49;16.05;;;8.00;;
82873;SDS011;72647;51.622;7.540;2023-12-14T06:01:49;25.30;;;14.35;;
82873;SDS011;72647;51.622;7.540;2023-12-14T06:03:50;18.60;;;8.17;;
82873;SDS011;72647;51.622;7.540;2023-12-14T06:05:50;24.73;;;12.87;;
82873;SDS011;72647;51.622;7.540;2023-12-14T06:07:50;21.80;;;8.33;;
82873;SDS011;72647;51.622;7.540;2023-12-14T06:09:50;16.60;;;6.90;;
82873;SDS011;72647;51.622;7.540;2023-12-14T06:11:51;15.48;;;7.57;;
82873;SDS011;72647;51.622;7.540;2023-12-14T06:13:51;23.92;;;12.68;;
82873;SDS011;72647;51.622;7.540;2023-12-14T06:15:51;15.70;;;7.90;;
82873;SDS011;72647;51.622;7.540;2023-12-14T06:17:52;18.60;;;8.07;;
82873;SDS011;72647;51.622;7.540;2023-12-14T06:19:52;17.33;;;6.97;;
82873;SDS011;72647;51.622;7.540;2023-12-14T06:21:52;17.77;;;7.23;;
82873;SDS011;72647;51.622;7.540;2023-12-14T06:23:52;18.10;;;6.77;;
82873;SDS011;72647;51.622;7.540;2023-12-14T06:25:52;17.77;;;7.90;;
82873;SDS011;72647;51.622;7.540;2023-12-14T06:27:52;17.47;;;8.00;;
82873;SDS011;72647;51.622;7.540;2023-12-14T06:29:53;13.60;;;5.70;;
82873;SDS011;72647;51.622;7.540;2023-12-14T06:31:53;14.00;;;5.65;;
82873;SDS011;72647;51.622;7.540;2023-12-14T06:33:53;15.27;;;6.87;;
82873;SDS011;72647;51.622;7.540;2023-12-14T06:35:53;15.53;;;7.30;;
82873;SDS011;72647;51.622;7.540;2023-12-14T06:37:54;14.57;;;6.10;;
82873;SDS011;72647;51.622;7.540;2023-12-14T06:39:54;14.00;;;7.07;;
82873;SDS011;72647;51.622;7.540;2023-12-14T06:41:54;15.77;;;6.87;;
82873;SDS011;72647;51.622;7.540;2023-12-14T06:43:54;18.45;;;7.68;;
82873;SDS011;72647;51.622;7.540;2023-12-14T06:45:55;17.10;;;6.88;;
82873;SDS011;72647;51.622;7.540;2023-12-14T06:47:55;19.13;;;8.10;;
82873;SDS011;72647;51.622;7.540;2023-12-14T06:49:55;19.93;;;7.43;;
82873;SDS011;72647;51.622;7.540;2023-12-14T06:51:57;17.00;;;7.25;;
82873;SDS011;72647;51.622;7.540;2023-12-14T06:53:58;19.95;;;7.93;;
82873;SDS011;72647;51.622;7.540;2023-12-14T06:55:58;38.30;;;18.77;;
82873;SDS011;72647;51.622;7.540;2023-12-14T06:57:58;26.43;;;11.67;;
82873;SDS011;72647;51.622;7.540;2023-12-14T06:59:58;18.70;;;8.07;;
82873;SDS011;72647;51.622;7.540;2023-12-14T07:01:58;20.53;;;7.73;;
82873;SDS011;72647;51.622;7.540;2023-12-14T07:03:59;19.43;;;8.10;;
82873;SDS011;72647;51.622;7.540;2023-12-14T07:05:59;21.25;;;7.82;;
82873;SDS011;72647;51.622;7.540;2023-12-14T07:07:59;18.20;;;7.95;;
82873;SDS011;72647;51.622;7.540;2023-12-14T07:10:00;22.10;;;9.30;;
82873;SDS011;72647;51.622;7.540;2023-12-14T07:12:00;19.90;;;8.43;;
82873;SDS011;72647;51.622;7.540;2023-12-14T07:14:02;19.25;;;8.65;;
82873;SDS011;72647;51.622;7.540;2023-12-14T07:16:09;17.73;;;7.97;;
82873;SDS011;72647;51.622;7.540;2023-12-14T07:18:09;19.60;;;7.60;;
82873;SDS011;72647;51.622;7.540;2023-12-14T07:20:10;19.10;;;8.23;;
82873;SDS011;72647;51.622;7.540;2023-12-14T07:22:10;17.30;;;7.45;;
82873;SDS011;72647;51.622;7.540;2023-12-14T07:24:11;19.08;;;7.53;;
82873;SDS011;72647;51.622;7.540;2023-12-14T07:26:12;21.30;;;8.65;;
82873;SDS011;72647;51.622;7.540;2023-12-14T07:28:12;20.20;;;8.73;;
82873;SDS011;72647;51.622;7.540;2023-12-14T07:30:12;21.10;;;9.07;;
82873;SDS011;72647;51.622;7.540;2023-12-14T07:32:13;21.55;;;8.55;;
82873;SDS011;72647;51.622;7.540;2023-12-14T07:34:13;20.73;;;8.90;;
82873;SDS011;72647;51.622;7.540;2023-12-14T07:36:13;17.30;;;7.60;;
82873;SDS011;72647;51.622;7.540;2023-12-14T07:38:14;20.35;;;8.20;;
82873;SDS011;72647;51.622;7.540;2023-12-14T07:40:14;21.90;;;9.37;;
82873;SDS011;72647;51.622;7.540;2023-12-14T07:42:14;21.63;;;8.00;;
82873;SDS011;72647;51.622;7.540;2023-12-14T07:44:19;19.95;;;9.02;;
82873;SDS011;72647;51.622;7.540;2023-12-14T07:46:20;17.42;;;7.57;;
82873;SDS011;72647;51.622;7.540;2023-12-14T07:48:21;21.60;;;9.43;;
82873;SDS011;72647;51.622;7.540;2023-12-14T07:50:21;19.85;;;8.90;;
82873;SDS011;72647;51.622;7.540;2023-12-14T07:52:21;20.95;;;8.35;;
82873;SDS011;72647;51.622;7.540;2023-12-14T07:54:22;26.00;;;8.67;;
82873;SDS011;72647;51.622;7.540;2023-12-14T07:56:22;18.92;;;7.78;;
82873;SDS011;72647;51.622;7.540;2023-12-14T07:58:25;19.67;;;7.97;;
82873;SDS011;72647;51.622;7.540;2023-12-14T08:00:26;22.80;;;7.90;;
82873;SDS011;72647;51.622;7.540;2023-12-14T08:02:26;20.60;;;8.93;;
82873;SDS011;72647;51.622;7.540;2023-12-14T08:04:26;26.53;;;9.20;;
82873;SDS011;72647;51.622;7.540;2023-12-14T08:06:26;24.87;;;9.43;;
82873;SDS011;72647;51.622;7.540;2023-12-14T08:08:27;23.73;;;9.53;;
82873;SDS011;72647;51.622;7.540;2023-12-14T08:10:27;23.38;;;8.48;;
82873;SDS011;72647;51.622;7.540;2023-12-14T08:12:27;20.30;;;8.53;;
82873;SDS011;72647;51.622;7.540;2023-12-14T08:14:27;20.00;;;9.18;;
82873;SDS011;72647;51.622;7.540;2023-12-14T08:16:28;18.52;;;8.27;;
82873;SDS011;72647;51.622;7.540;2023-12-14T08:18:28;20.23;;;9.23;;
82873;SDS011;72647;51.622;7.540;2023-12-14T08:20:28;24.33;;;9.15;;
82873;SDS011;72647;51.622;7.540;2023-12-14T08:22:29;22.38;;;9.43;;
82873;SDS011;72647;51.622;7.540;2023-12-14T08:24:29;21.50;;;9.00;;
82873;SDS011;72647;51.622;7.540;2023-12-14T08:26:29;22.47;;;9.97;;
82873;SDS011;72647;51.622;7.540;2023-12-14T08:28:30;17.80;;;8.03;;
82873;SDS011;72647;51.622;7.540;2023-12-14T08:30:30;19.63;;;8.73;;
82873;SDS011;72647;51.622;7.540;2023-12-14T08:32:30;21.80;;;10.00;;
82873;SDS011;72647;51.622;7.540;2023-12-14T08:34:31;24.80;;;12.23;;
82873;SDS011;72647;51.622;7.540;2023-12-14T08:36:31;25.67;;;10.27;;
82873;SDS011;72647;51.622;7.540;2023-12-14T08:38:31;24.67;;;9.10;;
82873;SDS011;72647;51.622;7.540;2023-12-14T08:40:32;21.25;;;8.52;;
82873;SDS011;72647;51.622;7.540;2023-12-14T08:42:32;18.35;;;8.02;;
82873;SDS011;72647;51.622;7.540;2023-12-14T08:44:32;18.30;;;8.33;;
82873;SDS011;72647;51.622;7.540;2023-12-14T08:46:43;18.15;;;8.23;;
82873;SDS011;72647;51.622;7.540;2023-12-14T08:48:43;21.00;;;8.60;;
82873;SDS011;72647;51.622;7.540;2023-12-14T08:50:44;20.03;;;9.50;;
82873;SDS011;72647;51.622;7.540;2023-12-14T08:52:44;21.60;;;9.45;;
82873;SDS011;72647;51.622;7.540;2023-12-14T08:54:44;21.87;;;8.73;;
82873;SDS011;72647;51.622;7.540;2023-12-14T08:56:45;20.50;;;9.00;;
82873;SDS011;72647;51.622;7.540;2023-12-14T08:58:45;20.77;;;8.87;;
82873;SDS011;72647;51.622;7.540;2023-12-14T09:00:47;23.02;;;9.07;;
82873;SDS011;72647;51.622;7.540;2023-12-14T09:02:53;21.25;;;7.95;;
82873;SDS011;72647;51.622;7.540;2023-12-14T09:04:53;21.63;;;8.73;;
82873;SDS011;72647;51.622;7.540;2023-12-14T09:06:54;19.27;;;8.20;;
82873;SDS011;72647;51.622;7.540;2023-12-14T09:08:54;24.70;;;9.83;;
82873;SDS011;72647;51.622;7.540;2023-12-14T09:10:55;22.70;;;10.15;;
82873;SDS011;72647;51.622;7.540;2023-12-14T09:12:55;21.23;;;9.10;;
82873;SDS011;72647;51.622;7.540;2023-12-14T09:14:56;24.33;;;9.38;;
82873;SDS011;72647;51.622;7.540;2023-12-14T09:16:56;23.50;;;9.85;;
82873;SDS011;72647;51.622;7.540;2023-12-14T09:18:56;23.42;;;8.85;;
82873;SDS011;72647;51.622;7.540;2023-12-14T09:20:57;23.10;;;9.37;;
82873;SDS011;72647;51.622;7.540;2023-12-14T09:22:57;24.25;;;8.55;;
82873;SDS011;72647;51.622;7.540;2023-12-14T09:24:57;23.02;;;9.30;;
82873;SDS011;72647;51.622;7.540;2023-12-14T09:26:57;20.00;;;8.60;;
82873;SDS011;72647;51.622;7.540;2023-12-14T09:28:58;23.83;;;9.13;;
82873;SDS011;72647;51.622;7.540;2023-12-14T09:30:58;25.50;;;9.70;;
82873;SDS011;72647;51.622;7.540;2023-12-14T09:32:58;28.70;;;9.97;;
82873;SDS011;72647;51.622;7.540;2023-12-14T09:34:59;30.05;;;11.95;;
82873;SDS011;72647;51.622;7.540;2023-12-14T09:36:59;27.25;;;9.98;;
82873;SDS011;72647;51.622;7.540;2023-12-14T09:38:59;27.97;;;10.23;;
82873;SDS011;72647;51.622;7.540;2023-12-14T09:40:59;28.17;;;11.13;;
82873;SDS011;72647;51.622;7.540;2023-12-14T09:43:00;26.13;;;10.30;;
82873;SDS011;72647;51.622;7.540;2023-12-14T09:45:00;28.85;;;10.40;;
82873;SDS011;72647;51.622;7.540;2023-12-14T09:47:01;28.83;;;10.52;;
82873;SDS011;72647;51.622;7.540;2023-12-14T09:49:02;27.35;;;10.70;;
82873;SDS011;72647;51.622;7.540;2023-12-14T09:51:04;24.98;;;10.20;;
82873;SDS011;72647;51.622;7.540;2023-12-14T09:53:06;28.92;;;11.15;;
82873;SDS011;72647;51.622;7.540;2023-12-14T09:55:07;23.90;;;10.60;;
82873;SDS011;72647;51.622;7.540;2023-12-14T09:57:08;27.00;;;10.80;;
82873;SDS011;72647;51.622;7.540;2023-12-14T09:59:09;28.30;;;10.00;;
82873;SDS011;72647;51.622;7.540;2023-12-14T10:01:25;25.27;;;10.45;;
82873;SDS011;72647;51.622;7.540;2023-12-14T10:03:27;25.58;;;10.75;;
82873;SDS011;72647;51.622;7.540;2023-12-14T10:05:28;25.50;;;11.02;;
82873;SDS011;72647;51.622;7.540;2023-12-14T10:07:28;24.27;;;9.37;;
82873;SDS011;72647;51.622;7.540;2023-12-14T10:09:31;25.35;;;9.10;;
82873;SDS011;72647;51.622;7.540;2023-12-14T10:11:32;25.80;;;9.73;;
82873;SDS011;72647;51.622;7.540;2023-12-14T10:13:36;21.93;;;9.60;;
82873;SDS011;72647;51.622;7.540;2023-12-14T10:15:44;23.75;;;10.88;;
82873;SDS011;72647;51.622;7.540;2023-12-14T10:17:45;22.85;;;9.75;;
82873;SDS011;72647;51.622;7.540;2023-12-14T10:19:56;25.42;;;12.07;;
82873;SDS011;72647;51.622;7.540;2023-12-14T10:21:56;29.13;;;14.18;;
82873;SDS011;72647;51.622;7.540;2023-12-14T10:23:56;22.67;;;10.80;;
82873;SDS011;72647;51.622;7.540;2023-12-14T10:25:57;23.23;;;9.75;;
82873;SDS011;72647;51.622;7.540;2023-12-14T10:27:57;24.80;;;11.27;;
82873;SDS011;72647;51.622;7.540;2023-12-14T10:29:57;19.97;;;9.93;;
82873;SDS011;72647;51.622;7.540;2023-12-14T10:31:58;23.08;;;10.43;;
82873;SDS011;72647;51.622;7.540;2023-12-14T10:33:59;19.10;;;8.75;;
82873;SDS011;72647;51.622;7.540;2023-12-14T10:35:59;21.37;;;9.13;;
82873;SDS011;72647;51.622;7.540;2023-12-14T10:38:03;22.50;;;9.48;;
82873;SDS011;72647;51.622;7.540;2023-12-14T10:40:08;20.70;;;9.27;;
82873;SDS011;72647;51.622;7.540;2023-12-14T10:42:10;22.95;;;10.15;;
82873;SDS011;72647;51.622;7.540;2023-12-14T10:44:10;20.65;;;8.55;;
82873;SDS011;72647;51.622;7.540;2023-12-14T10:46:11;20.30;;;8.60;;
82873;SDS011;72647;51.622;7.540;2023-12-14T10:48:12;19.10;;;8.32;;
82873;SDS011;72647;51.622;7.540;2023-12-14T10:50:13;17.38;;;8.40;;
82873;SDS011;72647;51.622;7.540;2023-12-14T10:52:13;20.45;;;9.27;;
82873;SDS011;72647;51.622;7.540;2023-12-14T10:54:14;22.55;;;9.63;;
82873;SDS011;72647;51.622;7.540;2023-12-14T10:56:16;18.77;;;8.30;;
82873;SDS011;72647;51.622;7.540;2023-12-14T10:58:19;21.52;;;8.85;;
82873;SDS011;72647;51.622;7.540;2023-12-14T11:00:19;17.65;;;8.27;;
82873;SDS011;72647;51.622;7.540;2023-12-14T11:02:19;19.93;;;9.03;;
82873;SDS011;72647;51.622;7.540;2023-12-14T11:04:23;22.50;;;8.75;;
82873;SDS011;72647;51.622;7.540;2023-12-14T11:08:30;18.88;;;8.55;;
82873;SDS011;72647;51.622;7.540;2023-12-14T11:12:37;22.20;;;9.07;;
82873;SDS011;72647;51.622;7.540;2023-12-14T11:14:38;20.80;;;9.77;;
82873;SDS011;72647;51.622;7.540;2023-12-14T11:16:39;21.30;;;8.65;;
82873;SDS011;72647;51.622;7.540;2023-12-14T11:18:46;17.73;;;8.65;;
82873;SDS011;72647;51.622;7.540;2023-12-14T11:21:04;20.00;;;9.30;;
82873;SDS011;72647;51.622;7.540;2023-12-14T11:23:07;19.35;;;8.25;;
82873;SDS011;72647;51.622;7.540;2023-12-14T11:27:07;17.93;;;8.40;;
82873;SDS011;72647;51.622;7.540;2023-12-14T11:29:07;20.90;;;9.37;;
82873;SDS011;72647;51.622;7.540;2023-12-14T11:31:11;20.53;;;9.20;;
82873;SDS011;72647;51.622;7.540;2023-12-14T11:33:12;20.45;;;8.75;;
82873;SDS011;72647;51.622;7.540;2023-12-14T11:35:13;16.92;;;7.28;;
82873;SDS011;72647;51.622;7.540;2023-12-14T11:37:13;21.43;;;9.90;;
82873;SDS011;72647;51.622;7.540;2023-12-14T11:39:13;20.35;;;8.82;;
82873;SDS011;72647;51.622;7.540;2023-12-14T11:41:14;18.02;;;8.45;;
82873;SDS011;72647;51.622;7.540;2023-12-14T11:43:15;17.90;;;8.37;;
82873;SDS011;72647;51.622;7.540;2023-12-14T11:45:15;22.17;;;9.07;;
82873;SDS011;72647;51.622;7.540;2023-12-14T11:47:17;18.20;;;8.48;;
82873;SDS011;72647;51.622;7.540;2023-12-14T11:49:18;21.80;;;9.87;;
82873;SDS011;72647;51.622;7.540;2023-12-14T11:53:19;19.23;;;8.03;;
82873;SDS011;72647;51.622;7.540;2023-12-14T11:55:19;20.33;;;9.40;;
82873;SDS011;72647;51.622;7.540;2023-12-14T11:57:21;21.30;;;8.57;;
82873;SDS011;72647;51.622;7.540;2023-12-14T11:59:21;21.57;;;8.73;;
82873;SDS011;72647;51.622;7.540;2023-12-14T12:01:21;21.70;;;8.30;;
82873;SDS011;72647;51.622;7.540;2023-12-14T12:03:23;20.50;;;9.45;;
82873;SDS011;72647;51.622;7.540;2023-12-14T12:05:34;18.93;;;8.70;;
82873;SDS011;72647;51.622;7.540;2023-12-14T12:07:34;20.80;;;8.80;;
82873;SDS011;72647;51.622;7.540;2023-12-14T12:09:39;19.40;;;8.90;;
82873;SDS011;72647;51.622;7.540;2023-12-14T12:11:40;22.73;;;10.32;;